sensor_id;sensor_type;location;lat;lon;timestamp;P1;durP1;ratioP1;P2;durP2;ratioP2
6193;SDS011;3130;41.564;23.280;2023-02-28T00:00:11;10.07;;;4.33;;
6193;SDS011;3130;41.564;23.280;2023-02-28T00:02:40;9.93;;;3.93;;
6193;SDS011;3130;41.564;23.280;2023-02-28T00:05:10;8.10;;;4.63;;
6193;SDS011;3130;41.564;23.280;2023-02-28T00:07:38;16.37;;;5.53;;
6193;SDS011;3130;41.564;23.280;2023-02-28T00:10:09;18.07;;;6.47;;
6193;SDS011;3130;41.564;23.280;2023-02-28T00:12:38;18.57;;;6.47;;
6193;SDS011;3130;41.564;23.280;2023-02-28T00:15:07;19.43;;;6.47;;
6193;SDS011;3130;41.564;23.280;2023-02-28T00:17:35;14.87;;;6.07;;
6193;SDS011;3130;41.564;23.280;2023-02-28T00:20:03;14.17;;;5.50;;
6193;SDS011;3130;41.564;23.280;2023-02-28T00:22:33;21.43;;;6.33;;
6193;SDS011;3130;41.564;23.280;2023-02-28T00:25:00;21.80;;;7.53;;
6193;SDS011;3130;41.564;23.280;2023-02-28T00:27:27;16.43;;;6.77;;
6193;SDS011;3130;41.564;23.280;2023-02-28T00:29:54;20.50;;;5.80;;
6193;SDS011;3130;41.564;23.280;2023-02-28T00:32:23;18.17;;;6.13;;
6193;SDS011;3130;41.564;23.280;2023-02-28T00:34:50;21.07;;;6.30;;
6193;SDS011;3130;41.564;23.280;2023-02-28T00:37:17;27.93;;;6.33;;
6193;SDS011;3130;41.564;23.280;2023-02-28T00:39:44;18.77;;;6.40;;
6193;SDS011;3130;41.564;23.280;2023-02-28T00:42:12;16.33;;;6.47;;
6193;SDS011;3130;41.564;23.280;2023-02-28T00:44:39;24.40;;;7.63;;
6193;SDS011;3130;41.564;23.280;2023-02-28T00:47:06;19.37;;;5.90;;
6193;SDS011;3130;41.564;23.280;2023-02-28T00:49:34;24.80;;;6.23;;
6193;SDS011;3130;41.564;23.280;2023-02-28T00:52:01;15.00;;;6.10;;
6193;SDS011;3130;41.564;23.280;2023-02-28T00:54:28;24.33;;;7.47;;
6193;SDS011;3130;41.564;23.280;2023-02-28T00:56:56;21.30;;;8.63;;
6193;SDS011;3130;41.564;23.280;2023-02-28T00:59:23;23.37;;;6.93;;
6193;SDS011;3130;41.564;23.280;2023-02-28T01:01:50;34.87;;;7.77;;
6193;SDS011;3130;41.564;23.280;2023-02-28T01:04:17;21.27;;;7.00;;
6193;SDS011;3130;41.564;23.280;2023-02-28T01:06:45;23.27;;;8.20;;
6193;SDS011;3130;41.564;23.280;2023-02-28T01:09:12;23.87;;;6.73;;
6193;SDS011;3130;41.564;23.280;2023-02-28T01:11:39;24.40;;;8.07;;
6193;SDS011;3130;41.564;23.280;2023-02-28T01:14:10;23.77;;;7.33;;
6193;SDS011;3130;41.564;23.280;2023-02-28T01:16:38;32.50;;;9.17;;
6193;SDS011;3130;41.564;23.280;2023-02-28T01:19:06;31.13;;;8.83;;
6193;SDS011;3130;41.564;23.280;2023-02-28T01:21:33;38.20;;;7.97;;
6193;SDS011;3130;41.564;23.280;2023-02-28T01:24:02;29.93;;;7.93;;
6193;SDS011;3130;41.564;23.280;2023-02-28T01:26:30;19.27;;;6.77;;
6193;SDS011;3130;41.564;23.280;2023-02-28T01:28:57;29.50;;;8.07;;
6193;SDS011;3130;41.564;23.280;2023-02-28T01:31:25;22.73;;;8.43;;
6193;SDS011;3130;41.564;23.280;2023-02-28T01:33:52;29.60;;;9.97;;
6193;SDS011;3130;41.564;23.280;2023-02-28T01:36:20;31.83;;;8.10;;
6193;SDS011;3130;41.564;23.280;2023-02-28T01:38:48;17.90;;;7.53;;
6193;SDS011;3130;41.564;23.280;2023-02-28T01:41:18;21.10;;;8.13;;
6193;SDS011;3130;41.564;23.280;2023-02-28T01:43:57;32.20;;;8.43;;
6193;SDS011;3130;41.564;23.280;2023-02-28T01:46:28;26.57;;;8.50;;
6193;SDS011;3130;41.564;23.280;2023-02-28T01:48:58;31.83;;;8.73;;
6193;SDS011;3130;41.564;23.280;2023-02-28T01:51:30;29.03;;;7.50;;
6193;SDS011;3130;41.564;23.280;2023-02-28T01:54:05;27.13;;;7.50;;
6193;SDS011;3130;41.564;23.280;2023-02-28T01:56:41;24.30;;;7.63;;
6193;SDS011;3130;41.564;23.280;2023-02-28T01:59:11;21.50;;;7.70;;
6193;SDS011;3130;41.564;23.280;2023-02-28T02:01:41;25.67;;;8.77;;
6193;SDS011;3130;41.564;23.280;2023-02-28T02:04:08;30.13;;;8.57;;
6193;SDS011;3130;41.564;23.280;2023-02-28T02:06:37;28.27;;;9.20;;
6193;SDS011;3130;41.564;23.280;2023-02-28T02:09:07;24.03;;;7.60;;
6193;SDS011;3130;41.564;23.280;2023-02-28T02:11:34;23.30;;;8.60;;
6193;SDS011;3130;41.564;23.280;2023-02-28T02:17:15;21.93;;;8.80;;
6193;SDS011;3130;41.564;23.280;2023-02-28T02:22:54;24.50;;;7.93;;
6193;SDS011;3130;41.564;23.280;2023-02-28T02:25:48;19.80;;;9.23;;
6193;SDS011;3130;41.564;23.280;2023-02-28T02:31:35;16.47;;;7.93;;
6193;SDS011;3130;41.564;23.280;2023-02-28T02:34:39;17.60;;;8.10;;
6193;SDS011;3130;41.564;23.280;2023-02-28T02:37:16;25.17;;;9.60;;
6193;SDS011;3130;41.564;23.280;2023-02-28T02:39:59;17.77;;;7.90;;
6193;SDS011;3130;41.564;23.280;2023-02-28T02:42:35;27.93;;;9.33;;
6193;SDS011;3130;41.564;23.280;2023-02-28T02:45:11;32.10;;;10.27;;
6193;SDS011;3130;41.564;23.280;2023-02-28T02:47:43;23.43;;;8.27;;
6193;SDS011;3130;41.564;23.280;2023-02-28T02:50:13;20.13;;;7.60;;
6193;SDS011;3130;41.564;23.280;2023-02-28T02:55:34;19.43;;;7.47;;
6193;SDS011;3130;41.564;23.280;2023-02-28T02:58:07;21.73;;;8.03;;
6193;SDS011;3130;41.564;23.280;2023-02-28T03:00:38;22.40;;;8.30;;
6193;SDS011;3130;41.564;23.280;2023-02-28T03:03:08;26.53;;;7.93;;
6193;SDS011;3130;41.564;23.280;2023-02-28T03:05:41;26.10;;;8.53;;
6193;SDS011;3130;41.564;23.280;2023-02-28T03:08:12;25.77;;;8.23;;
6193;SDS011;3130;41.564;23.280;2023-02-28T03:10:40;32.90;;;9.17;;
6193;SDS011;3130;41.564;23.280;2023-02-28T03:13:12;22.87;;;8.97;;
6193;SDS011;3130;41.564;23.280;2023-02-28T03:15:55;25.53;;;8.63;;
6193;SDS011;3130;41.564;23.280;2023-02-28T03:18:34;19.97;;;7.23;;
6193;SDS011;3130;41.564;23.280;2023-02-28T03:21:11;25.83;;;8.97;;
6193;SDS011;3130;41.564;23.280;2023-02-28T03:23:45;21.03;;;6.93;;
6193;SDS011;3130;41.564;23.280;2023-02-28T03:26:19;25.27;;;8.73;;
6193;SDS011;3130;41.564;23.280;2023-02-28T03:28:51;26.87;;;7.83;;
6193;SDS011;3130;41.564;23.280;2023-02-28T03:31:25;22.60;;;8.20;;
6193;SDS011;3130;41.564;23.280;2023-02-28T03:33:58;17.23;;;7.50;;
6193;SDS011;3130;41.564;23.280;2023-02-28T03:36:33;21.73;;;7.07;;
6193;SDS011;3130;41.564;23.280;2023-02-28T03:39:09;21.07;;;7.13;;
6193;SDS011;3130;41.564;23.280;2023-02-28T03:41:41;17.00;;;6.43;;
6193;SDS011;3130;41.564;23.280;2023-02-28T03:44:16;19.43;;;7.47;;
6193;SDS011;3130;41.564;23.280;2023-02-28T03:46:48;22.73;;;6.87;;
6193;SDS011;3130;41.564;23.280;2023-02-28T03:49:24;28.60;;;7.57;;
6193;SDS011;3130;41.564;23.280;2023-02-28T03:51:58;25.17;;;7.50;;
6193;SDS011;3130;41.564;23.280;2023-02-28T03:54:29;25.07;;;9.27;;
6193;SDS011;3130;41.564;23.280;2023-02-28T03:57:00;33.07;;;8.43;;
6193;SDS011;3130;41.564;23.280;2023-02-28T03:59:34;20.67;;;7.97;;
6193;SDS011;3130;41.564;23.280;2023-02-28T04:02:04;18.33;;;7.00;;
6193;SDS011;3130;41.564;23.280;2023-02-28T04:04:31;20.93;;;8.63;;
6193;SDS011;3130;41.564;23.280;2023-02-28T04:07:03;21.47;;;7.80;;
6193;SDS011;3130;41.564;23.280;2023-02-28T04:09:32;28.77;;;8.83;;
6193;SDS011;3130;41.564;23.280;2023-02-28T04:11:59;26.03;;;8.33;;
6193;SDS011;3130;41.564;23.280;2023-02-28T04:14:26;27.70;;;8.87;;
6193;SDS011;3130;41.564;23.280;2023-02-28T04:16:54;21.43;;;7.03;;
6193;SDS011;3130;41.564;23.280;2023-02-28T04:19:21;33.07;;;7.53;;
6193;SDS011;3130;41.564;23.280;2023-02-28T04:21:48;22.27;;;8.20;;
6193;SDS011;3130;41.564;23.280;2023-02-28T04:24:18;21.73;;;7.77;;
6193;SDS011;3130;41.564;23.280;2023-02-28T04:26:47;29.47;;;8.47;;
6193;SDS011;3130;41.564;23.280;2023-02-28T04:29:18;22.83;;;8.07;;
6193;SDS011;3130;41.564;23.280;2023-02-28T04:31:46;19.27;;;8.73;;
6193;SDS011;3130;41.564;23.280;2023-02-28T04:34:13;22.83;;;9.07;;
6193;SDS011;3130;41.564;23.280;2023-02-28T04:36:41;16.17;;;6.70;;
6193;SDS011;3130;41.564;23.280;2023-02-28T04:39:08;20.63;;;8.10;;
6193;SDS011;3130;41.564;23.280;2023-02-28T04:41:37;22.93;;;8.67;;
6193;SDS011;3130;41.564;23.280;2023-02-28T04:44:04;14.93;;;6.27;;
6193;SDS011;3130;41.564;23.280;2023-02-28T04:46:31;18.10;;;7.87;;
6193;SDS011;3130;41.564;23.280;2023-02-28T04:48:58;22.50;;;7.87;;
6193;SDS011;3130;41.564;23.280;2023-02-28T04:51:26;20.63;;;7.83;;
6193;SDS011;3130;41.564;23.280;2023-02-28T04:53:53;27.03;;;8.43;;
6193;SDS011;3130;41.564;23.280;2023-02-28T04:56:20;21.47;;;8.30;;
6193;SDS011;3130;41.564;23.280;2023-02-28T04:58:49;18.93;;;9.37;;
6193;SDS011;3130;41.564;23.280;2023-02-28T05:01:19;19.63;;;7.47;;
6193;SDS011;3130;41.564;23.280;2023-02-28T05:03:48;22.40;;;10.07;;
6193;SDS011;3130;41.564;23.280;2023-02-28T05:06:17;24.27;;;9.53;;
6193;SDS011;3130;41.564;23.280;2023-02-28T05:08:45;29.90;;;9.50;;
6193;SDS011;3130;41.564;23.280;2023-02-28T05:11:14;28.13;;;9.40;;
6193;SDS011;3130;41.564;23.280;2023-02-28T05:13:44;24.87;;;8.80;;
6193;SDS011;3130;41.564;23.280;2023-02-28T05:16:13;22.10;;;10.00;;
6193;SDS011;3130;41.564;23.280;2023-02-28T05:18:40;29.80;;;8.40;;
6193;SDS011;3130;41.564;23.280;2023-02-28T05:21:14;38.40;;;8.27;;
6193;SDS011;3130;41.564;23.280;2023-02-28T05:23:50;31.63;;;8.47;;
6193;SDS011;3130;41.564;23.280;2023-02-28T05:26:18;24.17;;;9.10;;
6193;SDS011;3130;41.564;23.280;2023-02-28T05:28:46;25.77;;;9.10;;
6193;SDS011;3130;41.564;23.280;2023-02-28T05:31:14;35.73;;;10.50;;
6193;SDS011;3130;41.564;23.280;2023-02-28T05:33:41;15.17;;;8.23;;
6193;SDS011;3130;41.564;23.280;2023-02-28T05:36:08;22.27;;;8.23;;
6193;SDS011;3130;41.564;23.280;2023-02-28T05:38:36;24.23;;;7.40;;
6193;SDS011;3130;41.564;23.280;2023-02-28T05:41:06;25.77;;;8.60;;
6193;SDS011;3130;41.564;23.280;2023-02-28T05:43:34;18.67;;;8.00;;
6193;SDS011;3130;41.564;23.280;2023-02-28T05:46:02;19.57;;;8.67;;
6193;SDS011;3130;41.564;23.280;2023-02-28T05:48:32;11.23;;;6.10;;
6193;SDS011;3130;41.564;23.280;2023-02-28T05:50:59;13.37;;;8.03;;
6193;SDS011;3130;41.564;23.280;2023-02-28T05:53:28;18.53;;;7.17;;
6193;SDS011;3130;41.564;23.280;2023-02-28T05:55:55;28.07;;;10.63;;
6193;SDS011;3130;41.564;23.280;2023-02-28T05:58:22;12.70;;;8.97;;
6193;SDS011;3130;41.564;23.280;2023-02-28T06:00:54;15.73;;;6.27;;
6193;SDS011;3130;41.564;23.280;2023-02-28T06:03:21;14.50;;;5.80;;
6193;SDS011;3130;41.564;23.280;2023-02-28T06:05:50;10.10;;;5.77;;
6193;SDS011;3130;41.564;23.280;2023-02-28T06:08:17;22.67;;;8.73;;
6193;SDS011;3130;41.564;23.280;2023-02-28T06:10:45;20.03;;;6.17;;
6193;SDS011;3130;41.564;23.280;2023-02-28T06:13:12;24.70;;;6.97;;
6193;SDS011;3130;41.564;23.280;2023-02-28T06:15:39;15.73;;;8.13;;
6193;SDS011;3130;41.564;23.280;2023-02-28T06:18:07;20.57;;;7.37;;
6193;SDS011;3130;41.564;23.280;2023-02-28T06:20:34;15.40;;;8.07;;
6193;SDS011;3130;41.564;23.280;2023-02-28T06:23:03;16.93;;;6.37;;
6193;SDS011;3130;41.564;23.280;2023-02-28T06:25:30;13.10;;;6.53;;
6193;SDS011;3130;41.564;23.280;2023-02-28T06:27:57;22.37;;;9.10;;
6193;SDS011;3130;41.564;23.280;2023-02-28T06:30:24;22.17;;;10.37;;
6193;SDS011;3130;41.564;23.280;2023-02-28T06:32:55;15.37;;;9.13;;
6193;SDS011;3130;41.564;23.280;2023-02-28T06:35:22;18.10;;;8.47;;
6193;SDS011;3130;41.564;23.280;2023-02-28T06:37:49;19.67;;;9.33;;
6193;SDS011;3130;41.564;23.280;2023-02-28T06:40:17;17.93;;;8.97;;
6193;SDS011;3130;41.564;23.280;2023-02-28T06:42:45;19.20;;;11.27;;
6193;SDS011;3130;41.564;23.280;2023-02-28T06:45:12;21.40;;;11.70;;
6193;SDS011;3130;41.564;23.280;2023-02-28T06:47:39;19.97;;;10.40;;
6193;SDS011;3130;41.564;23.280;2023-02-28T06:50:09;17.07;;;9.57;;
6193;SDS011;3130;41.564;23.280;2023-02-28T06:52:37;16.63;;;10.20;;
6193;SDS011;3130;41.564;23.280;2023-02-28T06:55:05;27.53;;;11.20;;
6193;SDS011;3130;41.564;23.280;2023-02-28T06:57:35;18.23;;;8.90;;
6193;SDS011;3130;41.564;23.280;2023-02-28T07:00:04;14.50;;;8.23;;
6193;SDS011;3130;41.564;23.280;2023-02-28T07:02:33;22.90;;;9.20;;
6193;SDS011;3130;41.564;23.280;2023-02-28T07:05:00;13.57;;;7.57;;
6193;SDS011;3130;41.564;23.280;2023-02-28T07:07:28;18.07;;;7.53;;
6193;SDS011;3130;41.564;23.280;2023-02-28T07:09:55;15.43;;;8.67;;
6193;SDS011;3130;41.564;23.280;2023-02-28T07:12:22;19.10;;;7.47;;
6193;SDS011;3130;41.564;23.280;2023-02-28T07:14:51;14.30;;;6.73;;
6193;SDS011;3130;41.564;23.280;2023-02-28T07:17:19;17.67;;;7.53;;
6193;SDS011;3130;41.564;23.280;2023-02-28T07:19:46;11.80;;;6.07;;
6193;SDS011;3130;41.564;23.280;2023-02-28T07:22:14;13.53;;;6.63;;
6193;SDS011;3130;41.564;23.280;2023-02-28T07:24:41;14.60;;;6.87;;
6193;SDS011;3130;41.564;23.280;2023-02-28T07:27:09;15.20;;;6.50;;
6193;SDS011;3130;41.564;23.280;2023-02-28T07:29:52;16.13;;;6.30;;
6193;SDS011;3130;41.564;23.280;2023-02-28T07:32:20;13.00;;;6.50;;
6193;SDS011;3130;41.564;23.280;2023-02-28T07:34:47;17.10;;;8.77;;
6193;SDS011;3130;41.564;23.280;2023-02-28T07:37:17;15.47;;;10.07;;
6193;SDS011;3130;41.564;23.280;2023-02-28T07:39:44;13.73;;;6.87;;
6193;SDS011;3130;41.564;23.280;2023-02-28T07:42:11;12.67;;;6.43;;
6193;SDS011;3130;41.564;23.280;2023-02-28T07:44:39;16.83;;;9.97;;
6193;SDS011;3130;41.564;23.280;2023-02-28T07:47:09;16.00;;;7.67;;
6193;SDS011;3130;41.564;23.280;2023-02-28T07:49:37;21.40;;;8.77;;
6193;SDS011;3130;41.564;23.280;2023-02-28T07:52:06;19.43;;;10.43;;
6193;SDS011;3130;41.564;23.280;2023-02-28T07:54:33;25.33;;;10.83;;
6193;SDS011;3130;41.564;23.280;2023-02-28T07:57:00;15.67;;;9.43;;
6193;SDS011;3130;41.564;23.280;2023-02-28T07:59:28;20.07;;;9.23;;
6193;SDS011;3130;41.564;23.280;2023-02-28T08:01:56;19.97;;;9.43;;
6193;SDS011;3130;41.564;23.280;2023-02-28T08:04:26;22.50;;;11.80;;
6193;SDS011;3130;41.564;23.280;2023-02-28T08:06:55;19.10;;;10.83;;
6193;SDS011;3130;41.564;23.280;2023-02-28T08:09:22;19.70;;;10.63;;
6193;SDS011;3130;41.564;23.280;2023-02-28T08:11:50;24.97;;;9.77;;
6193;SDS011;3130;41.564;23.280;2023-02-28T08:14:17;17.33;;;10.27;;
6193;SDS011;3130;41.564;23.280;2023-02-28T08:16:45;18.10;;;10.40;;
6193;SDS011;3130;41.564;23.280;2023-02-28T08:19:12;22.80;;;11.00;;
6193;SDS011;3130;41.564;23.280;2023-02-28T08:21:41;11.83;;;9.13;;
6193;SDS011;3130;41.564;23.280;2023-02-28T08:24:08;20.93;;;10.43;;
6193;SDS011;3130;41.564;23.280;2023-02-28T08:26:35;19.33;;;9.30;;
6193;SDS011;3130;41.564;23.280;2023-02-28T08:29:02;20.73;;;11.50;;
6193;SDS011;3130;41.564;23.280;2023-02-28T08:31:30;21.70;;;9.80;;
6193;SDS011;3130;41.564;23.280;2023-02-28T08:33:57;17.43;;;8.47;;
6193;SDS011;3130;41.564;23.280;2023-02-28T08:36:25;23.33;;;10.33;;
6193;SDS011;3130;41.564;23.280;2023-02-28T08:38:57;20.03;;;8.93;;
6193;SDS011;3130;41.564;23.280;2023-02-28T08:41:25;17.80;;;8.27;;
6193;SDS011;3130;41.564;23.280;2023-02-28T08:43:52;27.73;;;8.63;;
6193;SDS011;3130;41.564;23.280;2023-02-28T08:46:22;10.47;;;6.70;;
6193;SDS011;3130;41.564;23.280;2023-02-28T08:48:51;15.87;;;9.97;;
6193;SDS011;3130;41.564;23.280;2023-02-28T08:51:20;24.67;;;9.20;;
6193;SDS011;3130;41.564;23.280;2023-02-28T08:53:54;16.67;;;7.80;;
6193;SDS011;3130;41.564;23.280;2023-02-28T08:56:27;24.90;;;8.73;;
6193;SDS011;3130;41.564;23.280;2023-02-28T08:58:55;20.53;;;8.97;;
6193;SDS011;3130;41.564;23.280;2023-02-28T09:01:24;20.80;;;8.30;;
6193;SDS011;3130;41.564;23.280;2023-02-28T09:03:53;27.80;;;9.17;;
6193;SDS011;3130;41.564;23.280;2023-02-28T09:06:23;17.73;;;8.20;;
6193;SDS011;3130;41.564;23.280;2023-02-28T09:08:51;18.80;;;7.67;;
6193;SDS011;3130;41.564;23.280;2023-02-28T09:11:19;19.80;;;7.97;;
6193;SDS011;3130;41.564;23.280;2023-02-28T09:13:47;15.67;;;7.30;;
6193;SDS011;3130;41.564;23.280;2023-02-28T09:16:15;14.53;;;7.57;;
6193;SDS011;3130;41.564;23.280;2023-02-28T09:18:43;23.57;;;8.53;;
6193;SDS011;3130;41.564;23.280;2023-02-28T09:21:11;20.23;;;7.60;;
6193;SDS011;3130;41.564;23.280;2023-02-28T09:23:40;18.43;;;7.90;;
6193;SDS011;3130;41.564;23.280;2023-02-28T09:26:07;13.00;;;6.80;;
6193;SDS011;3130;41.564;23.280;2023-02-28T09:28:39;13.70;;;6.87;;
6193;SDS011;3130;41.564;23.280;2023-02-28T09:31:10;27.20;;;7.03;;
6193;SDS011;3130;41.564;23.280;2023-02-28T09:33:39;13.60;;;6.13;;
6193;SDS011;3130;41.564;23.280;2023-02-28T09:36:06;17.70;;;8.80;;
6193;SDS011;3130;41.564;23.280;2023-02-28T09:38:33;16.10;;;7.73;;
6193;SDS011;3130;41.564;23.280;2023-02-28T09:41:01;18.87;;;9.63;;
6193;SDS011;3130;41.564;23.280;2023-02-28T09:43:32;16.00;;;10.00;;
6193;SDS011;3130;41.564;23.280;2023-02-28T09:46:04;19.43;;;9.03;;
6193;SDS011;3130;41.564;23.280;2023-02-28T09:48:46;20.70;;;8.20;;
6193;SDS011;3130;41.564;23.280;2023-02-28T09:51:28;20.40;;;9.07;;
6193;SDS011;3130;41.564;23.280;2023-02-28T09:54:01;19.87;;;9.60;;
6193;SDS011;3130;41.564;23.280;2023-02-28T09:56:31;20.57;;;9.37;;
6193;SDS011;3130;41.564;23.280;2023-02-28T09:59:04;18.50;;;9.00;;
6193;SDS011;3130;41.564;23.280;2023-02-28T10:01:39;21.87;;;9.63;;
6193;SDS011;3130;41.564;23.280;2023-02-28T10:04:33;23.93;;;9.73;;
6193;SDS011;3130;41.564;23.280;2023-02-28T10:07:10;18.37;;;10.20;;
6193;SDS011;3130;41.564;23.280;2023-02-28T10:09:46;23.47;;;9.10;;
6193;SDS011;3130;41.564;23.280;2023-02-28T10:12:18;23.03;;;10.03;;
6193;SDS011;3130;41.564;23.280;2023-02-28T10:14:49;19.37;;;9.43;;
6193;SDS011;3130;41.564;23.280;2023-02-28T10:17:21;18.80;;;10.40;;
6193;SDS011;3130;41.564;23.280;2023-02-28T10:19:53;23.03;;;10.03;;
6193;SDS011;3130;41.564;23.280;2023-02-28T10:22:34;24.40;;;11.57;;
6193;SDS011;3130;41.564;23.280;2023-02-28T10:25:05;21.90;;;9.57;;
6193;SDS011;3130;41.564;23.280;2023-02-28T10:27:43;22.33;;;9.80;;
6193;SDS011;3130;41.564;23.280;2023-02-28T10:30:11;17.23;;;9.13;;
6193;SDS011;3130;41.564;23.280;2023-02-28T10:32:39;20.53;;;11.40;;
6193;SDS011;3130;41.564;23.280;2023-02-28T10:35:16;19.60;;;9.97;;
6193;SDS011;3130;41.564;23.280;2023-02-28T10:37:45;27.30;;;11.50;;
6193;SDS011;3130;41.564;23.280;2023-02-28T10:42:59;21.70;;;12.13;;
6193;SDS011;3130;41.564;23.280;2023-02-28T10:45:28;32.03;;;16.90;;
6193;SDS011;3130;41.564;23.280;2023-02-28T10:47:57;27.90;;;13.73;;
6193;SDS011;3130;41.564;23.280;2023-02-28T10:50:34;23.10;;;11.63;;
6193;SDS011;3130;41.564;23.280;2023-02-28T10:53:22;25.37;;;11.53;;
6193;SDS011;3130;41.564;23.280;2023-02-28T10:55:58;25.90;;;11.57;;
6193;SDS011;3130;41.564;23.280;2023-02-28T10:58:27;24.80;;;10.37;;
6193;SDS011;3130;41.564;23.280;2023-02-28T11:00:57;19.37;;;10.67;;
6193;SDS011;3130;41.564;23.280;2023-02-28T11:03:29;25.00;;;10.33;;
6193;SDS011;3130;41.564;23.280;2023-02-28T11:06:04;18.93;;;10.37;;
6193;SDS011;3130;41.564;23.280;2023-02-28T11:08:33;18.77;;;8.90;;
6193;SDS011;3130;41.564;23.280;2023-02-28T11:11:03;25.63;;;9.73;;
6193;SDS011;3130;41.564;23.280;2023-02-28T11:13:33;20.43;;;9.40;;
6193;SDS011;3130;41.564;23.280;2023-02-28T11:16:04;20.00;;;9.63;;
6193;SDS011;3130;41.564;23.280;2023-02-28T11:18:35;13.27;;;8.57;;
6193;SDS011;3130;41.564;23.280;2023-02-28T11:21:09;21.30;;;9.93;;
6193;SDS011;3130;41.564;23.280;2023-02-28T11:23:45;21.67;;;9.53;;
6193;SDS011;3130;41.564;23.280;2023-02-28T11:26:15;18.37;;;8.37;;
6193;SDS011;3130;41.564;23.280;2023-02-28T11:29:03;18.37;;;8.17;;
6193;SDS011;3130;41.564;23.280;2023-02-28T11:31:37;22.80;;;8.83;;
6193;SDS011;3130;41.564;23.280;2023-02-28T11:36:51;17.67;;;9.77;;
6193;SDS011;3130;41.564;23.280;2023-02-28T11:39:22;21.30;;;9.20;;
6193;SDS011;3130;41.564;23.280;2023-02-28T11:41:58;30.27;;;11.13;;
6193;SDS011;3130;41.564;23.280;2023-02-28T11:44:40;28.50;;;10.93;;
6193;SDS011;3130;41.564;23.280;2023-02-28T11:47:23;20.77;;;10.73;;
6193;SDS011;3130;41.564;23.280;2023-02-28T11:50:03;26.73;;;13.20;;
6193;SDS011;3130;41.564;23.280;2023-02-28T11:52:45;25.67;;;11.93;;
6193;SDS011;3130;41.564;23.280;2023-02-28T11:55:19;25.03;;;12.07;;
6193;SDS011;3130;41.564;23.280;2023-02-28T11:57:55;20.97;;;10.07;;
6193;SDS011;3130;41.564;23.280;2023-02-28T12:00:33;39.33;;;13.97;;
6193;SDS011;3130;41.564;23.280;2023-02-28T12:03:11;24.73;;;10.90;;
6193;SDS011;3130;41.564;23.280;2023-02-28T12:05:54;25.20;;;10.77;;
6193;SDS011;3130;41.564;23.280;2023-02-28T12:08:33;22.73;;;11.27;;
6193;SDS011;3130;41.564;23.280;2023-02-28T12:11:24;27.10;;;13.40;;
6193;SDS011;3130;41.564;23.280;2023-02-28T12:14:03;25.87;;;12.43;;
6193;SDS011;3130;41.564;23.280;2023-02-28T12:16:47;23.53;;;10.83;;
6193;SDS011;3130;41.564;23.280;2023-02-28T12:19:25;24.57;;;13.50;;
6193;SDS011;3130;41.564;23.280;2023-02-28T12:22:06;28.60;;;14.17;;
6193;SDS011;3130;41.564;23.280;2023-02-28T12:24:56;23.43;;;12.70;;
6193;SDS011;3130;41.564;23.280;2023-02-28T12:27:48;18.57;;;10.47;;
6193;SDS011;3130;41.564;23.280;2023-02-28T12:30:19;27.13;;;12.03;;
6193;SDS011;3130;41.564;23.280;2023-02-28T12:32:52;31.07;;;13.03;;
6193;SDS011;3130;41.564;23.280;2023-02-28T12:35:24;20.10;;;10.97;;
6193;SDS011;3130;41.564;23.280;2023-02-28T12:38:01;23.10;;;11.73;;
6193;SDS011;3130;41.564;23.280;2023-02-28T12:40:43;19.27;;;11.43;;
6193;SDS011;3130;41.564;23.280;2023-02-28T12:43:12;28.43;;;12.27;;
6193;SDS011;3130;41.564;23.280;2023-02-28T12:45:44;27.67;;;12.87;;
6193;SDS011;3130;41.564;23.280;2023-02-28T12:48:17;28.50;;;12.80;;
6193;SDS011;3130;41.564;23.280;2023-02-28T12:50:50;32.83;;;14.67;;
6193;SDS011;3130;41.564;23.280;2023-02-28T12:53:20;31.13;;;14.83;;
6193;SDS011;3130;41.564;23.280;2023-02-28T12:55:57;29.83;;;14.47;;
6193;SDS011;3130;41.564;23.280;2023-02-28T12:58:36;31.33;;;16.13;;
6193;SDS011;3130;41.564;23.280;2023-02-28T13:01:27;29.77;;;16.13;;
6193;SDS011;3130;41.564;23.280;2023-02-28T13:07:16;36.90;;;19.83;;
6193;SDS011;3130;41.564;23.280;2023-02-28T13:10:04;39.40;;;21.23;;
6193;SDS011;3130;41.564;23.280;2023-02-28T13:12:34;37.20;;;20.67;;
6193;SDS011;3130;41.564;23.280;2023-02-28T13:15:04;32.83;;;23.20;;
6193;SDS011;3130;41.564;23.280;2023-02-28T13:17:38;36.17;;;20.57;;
6193;SDS011;3130;41.564;23.280;2023-02-28T13:20:14;43.90;;;22.57;;
6193;SDS011;3130;41.564;23.280;2023-02-28T13:22:44;33.37;;;21.50;;
6193;SDS011;3130;41.564;23.280;2023-02-28T13:34:41;37.03;;;20.47;;
6193;SDS011;3130;41.564;23.280;2023-02-28T13:42:55;28.50;;;20.30;;
6193;SDS011;3130;41.564;23.280;2023-02-28T13:45:24;37.80;;;23.50;;
6193;SDS011;3130;41.564;23.280;2023-02-28T13:48:15;46.10;;;24.17;;
6193;SDS011;3130;41.564;23.280;2023-02-28T13:50:45;49.13;;;26.63;;
6193;SDS011;3130;41.564;23.280;2023-02-28T13:56:23;41.27;;;24.70;;
6193;SDS011;3130;41.564;23.280;2023-02-28T13:59:01;43.30;;;26.37;;
6193;SDS011;3130;41.564;23.280;2023-02-28T14:01:39;41.67;;;25.20;;
6193;SDS011;3130;41.564;23.280;2023-02-28T14:04:37;38.00;;;25.03;;
6193;SDS011;3130;41.564;23.280;2023-02-28T14:07:42;41.53;;;23.13;;
6193;SDS011;3130;41.564;23.280;2023-02-28T14:10:23;40.63;;;27.30;;
6193;SDS011;3130;41.564;23.280;2023-02-28T14:12:57;36.57;;;25.43;;
6193;SDS011;3130;41.564;23.280;2023-02-28T14:18:24;44.13;;;28.20;;
6193;SDS011;3130;41.564;23.280;2023-02-28T14:20:57;53.23;;;30.03;;
6193;SDS011;3130;41.564;23.280;2023-02-28T14:23:43;48.40;;;29.87;;
6193;SDS011;3130;41.564;23.280;2023-02-28T14:29:55;58.70;;;35.53;;
6193;SDS011;3130;41.564;23.280;2023-02-28T14:32:49;59.83;;;34.03;;
6193;SDS011;3130;41.564;23.280;2023-02-28T14:35:35;55.53;;;33.00;;
6193;SDS011;3130;41.564;23.280;2023-02-28T14:38:13;51.20;;;31.80;;
6193;SDS011;3130;41.564;23.280;2023-02-28T14:40:47;44.13;;;31.93;;
6193;SDS011;3130;41.564;23.280;2023-02-28T14:43:19;53.67;;;31.70;;
6193;SDS011;3130;41.564;23.280;2023-02-28T14:45:51;59.43;;;35.43;;
6193;SDS011;3130;41.564;23.280;2023-02-28T14:48:21;53.40;;;33.47;;
6193;SDS011;3130;41.564;23.280;2023-02-28T14:50:51;49.67;;;32.43;;
6193;SDS011;3130;41.564;23.280;2023-02-28T14:53:21;50.63;;;34.70;;
6193;SDS011;3130;41.564;23.280;2023-02-28T14:55:52;56.03;;;34.00;;
6193;SDS011;3130;41.564;23.280;2023-02-28T14:58:23;52.33;;;33.13;;
6193;SDS011;3130;41.564;23.280;2023-02-28T15:00:52;52.70;;;33.10;;
6193;SDS011;3130;41.564;23.280;2023-02-28T15:03:22;48.53;;;33.97;;
6193;SDS011;3130;41.564;23.280;2023-02-28T15:05:51;47.33;;;35.03;;
6193;SDS011;3130;41.564;23.280;2023-02-28T15:08:21;58.07;;;35.17;;
6193;SDS011;3130;41.564;23.280;2023-02-28T15:10:54;57.73;;;35.90;;
6193;SDS011;3130;41.564;23.280;2023-02-28T15:13:35;52.57;;;36.83;;
6193;SDS011;3130;41.564;23.280;2023-02-28T15:16:11;71.70;;;48.50;;
6193;SDS011;3130;41.564;23.280;2023-02-28T15:18:48;94.00;;;62.07;;
6193;SDS011;3130;41.564;23.280;2023-02-28T15:21:21;97.10;;;71.50;;
6193;SDS011;3130;41.564;23.280;2023-02-28T15:23:52;116.37;;;83.67;;
6193;SDS011;3130;41.564;23.280;2023-02-28T15:26:27;97.07;;;71.60;;
6193;SDS011;3130;41.564;23.280;2023-02-28T15:28:58;114.20;;;84.90;;
6193;SDS011;3130;41.564;23.280;2023-02-28T15:31:28;115.03;;;82.70;;
6193;SDS011;3130;41.564;23.280;2023-02-28T15:34:05;99.27;;;61.43;;
6193;SDS011;3130;41.564;23.280;2023-02-28T15:36:34;83.77;;;56.07;;
6193;SDS011;3130;41.564;23.280;2023-02-28T15:39:03;87.03;;;56.37;;
6193;SDS011;3130;41.564;23.280;2023-02-28T15:41:50;85.37;;;53.23;;
6193;SDS011;3130;41.564;23.280;2023-02-28T15:44:23;107.77;;;78.10;;
6193;SDS011;3130;41.564;23.280;2023-02-28T15:46:55;82.57;;;51.73;;
6193;SDS011;3130;41.564;23.280;2023-02-28T15:49:26;67.83;;;45.77;;
6193;SDS011;3130;41.564;23.280;2023-02-28T15:51:55;74.70;;;46.10;;
6193;SDS011;3130;41.564;23.280;2023-02-28T15:54:27;54.03;;;37.27;;